Time;durP1;ratioP1;P1;durP2;ratioP2;P2;SDS_P1;SDS_P2;PMS_P1;PMS_P2;Temp;Humidity;BMP_temperature;BMP_pressure;BME280_temperature;BME280_humidity;BME280_pressure;Samples;Min_cycle;Max_cycle;Signal;HPM_P1;HPM_P2
2021/06/09 00:01:21;;;;;;;22.10;20.00;;;;;;;14.50;87.65;96087.63;5011945;28;20278;-75
2021/06/09 00:03:46;;;;;;;23.85;21.45;;;;;;;14.49;88.05;96091.22;5011919;28;20271;-75
2021/06/09 00:06:11;;;;;;;24.67;22.13;;;;;;;14.49;88.04;96098.19;5010260;28;20229;-75
2021/06/09 00:08:37;;;;;;;24.02;21.80;;;;;;;14.49;88.23;96092.97;5011884;28;20241;-74
2021/06/09 00:11:02;;;;;;;26.65;24.17;;;;;;;14.47;88.98;96092.31;5011847;28;20236;-75
2021/06/09 00:13:30;;;;;;;27.70;24.70;;;;;;;14.45;89.38;96100.31;5011542;28;20547;-75
2021/06/09 00:15:58;;;;;;;28.27;25.48;;;;;;;14.45;89.79;96090.69;5026893;28;20218;-75
2021/06/09 00:18:24;;;;;;;29.35;26.30;;;;;;;14.42;90.44;96090.97;4992202;28;20642;-74
2021/06/09 00:20:49;;;;;;;26.88;24.23;;;;;;;14.52;89.58;96097.91;4991983;28;20187;-75
2021/06/09 00:23:17;;;;;;;27.77;24.88;;;;;;;14.44;90.36;96089.03;4992325;28;20190;-75
2021/06/09 00:25:48;;;;;;;26.95;24.35;;;;;;;14.34;89.67;96088.34;5010572;28;20290;-75
2021/06/09 00:28:13;;;;;;;25.35;22.85;;;;;;;14.23;89.40;96083.41;5011586;28;20175;-74
2021/06/09 00:30:39;;;;;;;24.67;22.38;;;;;;;14.21;89.46;96080.09;5011469;28;20211;-75
2021/06/09 00:33:04;;;;;;;24.57;22.27;;;;;;;14.17;89.55;96084.03;5012787;28;20262;-75
2021/06/09 00:35:30;;;;;;;24.10;21.80;;;;;;;14.15;89.49;96091.19;4994064;28;20234;-74
2021/06/09 00:37:55;;;;;;;23.13;20.73;;;;;;;14.11;89.23;96084.63;5010699;28;20737;-74
2021/06/09 00:40:21;;;;;;;22.63;20.33;;;;;;;14.10;89.13;96083.00;5012458;28;20237;-75
2021/06/09 00:43:02;;;;;;;21.13;19.23;;;;;;;14.10;88.92;96081.22;5011342;28;20202;-75
2021/06/09 00:45:27;;;;;;;22.77;20.38;;;;;;;14.08;88.81;96085.78;5012519;28;20594;-75
2021/06/09 00:47:53;;;;;;;21.85;19.73;;;;;;;14.12;88.85;96084.47;5008704;28;20195;-76
2021/06/09 00:50:18;;;;;;;21.10;19.13;;;;;;;14.11;88.71;96088.06;5011031;28;20190;-75
2021/06/09 00:52:43;;;;;;;20.17;18.23;;;;;;;14.12;88.57;96097.53;5011110;28;20191;-75
2021/06/09 00:55:09;;;;;;;20.37;18.53;;;;;;;14.13;88.51;96087.91;5012315;28;20257;-75
2021/06/09 00:57:34;;;;;;;21.55;19.23;;;;;;;14.13;88.72;96090.50;5009656;28;20642;-75
2021/06/09 01:00:00;;;;;;;20.23;18.17;;;;;;;14.15;88.36;96091.19;5011026;28;20179;-76
2021/06/09 01:02:26;;;;;;;19.77;17.87;;;;;;;14.15;88.33;96092.03;5010673;28;20215;-75
2021/06/09 01:04:52;;;;;;;19.42;17.55;;;;;;;14.18;88.41;96093.50;5011173;28;20202;-76
2021/06/09 01:07:17;;;;;;;21.60;18.50;;;;;;;14.21;88.58;96097.56;5010089;28;20262;-75
2021/06/09 01:09:42;;;;;;;23.38;21.17;;;;;;;14.19;88.93;96102.97;5010345;28;20195;-76
2021/06/09 01:12:08;;;;;;;26.40;23.88;;;;;;;14.22;90.24;96107.88;5010058;28;20566;-76
2021/06/09 01:14:33;;;;;;;26.58;23.88;;;;;;;14.21;91.04;96101.00;5010787;28;20234;-75
2021/06/09 01:16:59;;;;;;;27.80;25.00;;;;;;;14.18;91.86;96096.91;5012015;28;20218;-76
2021/06/09 01:19:24;;;;;;;28.17;25.35;;;;;;;14.16;92.38;96093.66;5009733;28;20214;-76
2021/06/09 01:21:49;;;;;;;28.50;25.80;;;;;;;14.19;92.49;96095.13;5010465;28;20277;-75
2021/06/09 01:24:16;;;;;;;28.30;25.40;;;;;;;14.23;92.40;96098.25;5010609;28;20226;-75
2021/06/09 01:26:42;;;;;;;29.75;26.83;;;;;;;14.19;92.53;96102.97;5010783;28;20202;-76
2021/06/09 01:29:08;;;;;;;27.63;24.95;;;;;;;14.22;92.25;96097.41;5007603;28;20187;-76
2021/06/09 01:31:33;;;;;;;27.50;24.80;;;;;;;14.25;91.82;96099.72;5009399;28;20233;-76
2021/06/09 01:34:05;;;;;;;26.43;23.90;;;;;;;14.30;91.24;96100.06;5010277;28;20202;-76
2021/06/09 01:36:37;;;;;;;26.17;23.60;;;;;;;14.29;90.92;96097.63;5010662;28;20229;-76
2021/06/09 01:39:28;;;;;;;25.63;23.23;;;;;;;14.28;90.83;96102.03;4992867;28;20215;-76
2021/06/09 01:41:54;;;;;;;24.50;22.23;;;;;;;14.27;90.66;96097.78;5020901;28;20198;-76
2021/06/09 01:44:19;;;;;;;23.85;21.55;;;;;;;14.29;90.51;96097.63;4994070;28;20199;-76
2021/06/09 01:46:44;;;;;;;24.80;22.20;;;;;;;14.29;90.38;96092.38;5010478;28;20190;-76
2021/06/09 01:49:11;;;;;;;23.50;21.20;;;;;;;14.29;90.15;96095.00;5010453;28;20171;-75
2021/06/09 01:51:37;;;;;;;24.13;21.93;;;;;;;14.28;90.15;96098.59;5009854;28;20201;-75
2021/06/09 01:54:05;;;;;;;23.40;21.23;;;;;;;14.27;90.08;96091.72;5010237;28;20187;-76
2021/06/09 01:56:30;;;;;;;24.17;21.87;;;;;;;14.26;90.03;96092.72;5010430;28;20253;-76
2021/06/09 01:58:55;;;;;;;22.53;20.40;;;;;;;14.26;89.58;96090.91;4993969;28;20289;-76
2021/06/09 02:01:21;;;;;;;23.08;20.88;;;;;;;14.23;89.76;96087.81;5009039;28;20655;-76
2021/06/09 02:03:46;;;;;;;25.30;20.73;;;;;;;14.19;89.83;96084.69;5011446;28;20183;-76
2021/06/09 02:06:12;;;;;;;21.77;19.77;;;;;;;14.22;89.83;96088.75;4994083;28;20509;-76
2021/06/09 02:08:37;;;;;;;22.20;20.10;;;;;;;14.20;89.70;96082.88;5010381;28;20179;-76
2021/06/09 02:11:03;;;;;;;21.52;19.45;;;;;;;14.20;89.59;96078.47;5009145;28;20611;-76
2021/06/09 02:13:30;;;;;;;22.42;20.27;;;;;;;14.18;89.29;96070.81;5009527;28;20241;-76
2021/06/09 02:15:56;;;;;;;20.00;18.20;;;;;;;14.16;89.38;96072.75;4993666;28;20302;-76
2021/06/09 02:18:24;;;;;;;21.10;19.13;;;;;;;14.18;89.30;96072.59;5010232;28;20296;-76
2021/06/09 02:20:52;;;;;;;20.38;18.48;;;;;;;14.16;89.13;96064.09;5009931;28;20171;-76
2021/06/09 02:23:20;;;;;;;20.33;18.38;;;;;;;14.16;88.96;96070.16;5008973;28;20188;-76
2021/06/09 02:25:49;;;;;;;20.60;18.73;;;;;;;14.17;88.77;96078.78;5011270;28;20234;-76
2021/06/09 02:28:15;;;;;;;20.38;18.50;;;;;;;14.17;88.51;96073.56;5010090;28;20180;-76
2021/06/09 02:30:41;;;;;;;20.13;18.13;;;;;;;14.16;88.61;96071.94;5009919;28;20191;-76
2021/06/09 02:33:07;;;;;;;20.90;18.83;;;;;;;14.14;88.22;96073.91;5009001;28;20183;-76
2021/06/09 02:35:38;;;;;;;20.20;18.30;;;;;;;14.10;88.38;96070.75;5009830;28;20253;-76
2021/06/09 02:38:04;;;;;;;19.13;17.27;;;;;;;14.08;88.38;96066.69;5009915;28;20623;-76
2021/06/09 02:40:29;;;;;;;18.70;16.92;;;;;;;14.08;88.37;96064.06;5009871;28;20534;-76
2021/06/09 02:42:55;;;;;;;19.03;17.33;;;;;;;14.07;88.28;96062.44;5010930;28;20179;-74
2021/06/09 02:45:20;;;;;;;20.02;17.48;;;;;;;14.05;88.34;96059.16;5008945;28;20199;-76
2021/06/09 02:48:06;;;;;;;20.37;18.33;;;;;;;14.06;88.28;96063.41;4995847;28;20693;-76
2021/06/09 02:50:31;;;;;;;20.03;18.07;;;;;;;14.05;88.09;96061.78;5013242;28;20233;-76
2021/06/09 02:53:11;;;;;;;18.30;16.60;;;;;;;14.04;88.01;96065.34;4997110;28;20651;-76
2021/06/09 02:56:00;;;;;;;19.97;18.17;;;;;;;14.03;88.11;96059.31;5011985;28;20230;-75
2021/06/09 02:58:39;;;;;;;19.17;17.27;;;;;;;14.03;87.67;96053.25;5010179;28;20683;-76
2021/06/09 03:01:29;;;;;;;19.48;17.63;;;;;;;14.03;87.69;96058.47;4994731;28;20182;-76
2021/06/09 03:04:03;;;;;;;18.93;17.23;;;;;;;14.01;87.43;96061.25;4993400;28;20192;-76
2021/06/09 03:06:39;;;;;;;19.35;17.50;;;;;;;13.99;87.25;96065.00;5012127;28;20190;-76
2021/06/09 03:09:14;;;;;;;19.75;17.83;;;;;;;13.97;87.55;96064.34;5013150;28;20175;-76
2021/06/09 03:11:53;;;;;;;18.93;17.23;;;;;;;13.94;87.48;96062.84;5012511;28;20565;-76
2021/06/09 03:17:09;;;;;;;18.87;17.03;;;;;;;13.88;87.46;96072.13;5012000;28;20187;-76
2021/06/09 03:19:53;;;;;;;20.30;18.30;;;;;;;13.87;87.47;96067.06;5012879;28;20716;-76
2021/06/09 03:22:24;;;;;;;18.87;17.03;;;;;;;13.84;87.45;96064.75;5011333;28;20195;-76
2021/06/09 03:24:54;;;;;;;19.77;17.67;;;;;;;13.81;87.58;96058.06;5013981;28;20203;-75
2021/06/09 03:27:24;;;;;;;20.05;18.15;;;;;;;13.80;87.58;96061.66;4996407;28;20175;-76
2021/06/09 03:29:51;;;;;;;19.83;18.03;;;;;;;13.78;87.48;96063.59;5012804;28;20179;-76
2021/06/09 03:32:31;;;;;;;19.03;17.03;;;;;;;13.79;87.45;96070.47;5012464;28;20198;-76
2021/06/09 03:35:04;;;;;;;19.23;17.33;;;;;;;13.78;87.54;96058.38;5010094;28;20678;-75
2021/06/09 03:37:34;;;;;;;19.52;17.73;;;;;;;13.79;87.58;96062.63;5012567;28;20253;-76
2021/06/09 03:40:01;;;;;;;20.13;18.17;;;;;;;13.81;87.49;96058.06;5012598;28;20183;-76
2021/06/09 03:42:29;;;;;;;20.80;18.70;;;;;;;13.85;87.49;96056.75;5013570;28;20237;-75
2021/06/09 03:44:56;;;;;;;20.00;18.10;;;;;;;13.91;87.52;96063.16;5011161;28;20294;-76
2021/06/09 03:47:22;;;;;;;20.43;18.53;;;;;;;13.96;87.30;96062.69;5012284;28;20695;-76
2021/06/09 03:49:49;;;;;;;21.93;18.97;;;;;;;13.98;87.31;96063.38;5012394;28;20194;-76
2021/06/09 03:52:15;;;;;;;19.90;18.10;;;;;;;14.02;87.18;96064.69;5012156;28;20187;-76
2021/06/09 03:54:55;;;;;;;20.97;18.87;;;;;;;14.06;87.07;96055.56;5009010;28;20294;-76
2021/06/09 03:57:24;;;;;;;20.83;18.92;;;;;;;14.13;86.95;96061.78;5019753;28;20675;-76
2021/06/09 03:59:50;;;;;;;20.40;18.50;;;;;;;14.21;86.82;96068.84;5012212;28;20698;-76
2021/06/09 04:02:16;;;;;;;20.17;18.17;;;;;;;14.27;86.43;96073.44;4995607;28;20550;-76
2021/06/09 04:04:42;;;;;;;20.43;18.40;;;;;;;14.33;86.29;96071.03;5011707;28;20213;-76
2021/06/09 04:07:08;;;;;;;20.13;18.33;;;;;;;14.42;85.99;96061.44;5009931;28;20561;-76
2021/06/09 04:09:34;;;;;;;21.73;19.70;;;;;;;14.52;85.82;96069.97;5012126;28;20179;-76
2021/06/09 04:12:02;;;;;;;20.27;18.37;;;;;;;14.57;85.60;96067.69;5011459;28;20191;-75
2021/06/09 04:14:32;;;;;;;19.10;17.20;;;;;;;14.64;85.38;96070.50;4995352;28;20627;-75
2021/06/09 04:16:58;;;;;;;18.63;16.85;;;;;;;14.66;84.97;96069.34;5010776;28;20198;-76
2021/06/09 04:19:24;;;;;;;18.93;17.13;;;;;;;14.70;84.82;96075.09;5013100;28;20258;-76
2021/06/09 04:21:50;;;;;;;18.87;17.23;;;;;;;14.73;84.91;96075.56;5011653;28;20180;-75
2021/06/09 04:24:15;;;;;;;20.00;18.10;;;;;;;14.76;84.79;96074.47;4995194;28;20242;-76
2021/06/09 04:26:41;;;;;;;19.77;17.88;;;;;;;14.79;84.78;96078.53;5010606;28;20632;-76
2021/06/09 04:29:08;;;;;;;19.37;17.57;;;;;;;14.82;84.44;96081.63;5011476;28;20258;-76
2021/06/09 04:31:33;;;;;;;18.90;17.20;;;;;;;14.84;84.43;96073.63;4994857;28;20570;-76
2021/06/09 04:33:59;;;;;;;18.83;17.13;;;;;;;14.90;84.38;96071.19;5011586;28;20175;-76
2021/06/09 04:36:24;;;;;;;19.83;17.92;;;;;;;14.97;83.91;96076.59;5012783;28;20215;-76
2021/06/09 04:38:50;;;;;;;17.27;15.77;;;;;;;15.03;83.90;96073.34;4993581;28;20258;-76
2021/06/09 04:41:15;;;;;;;19.25;17.45;;;;;;;15.10;83.96;96078.72;5011406;28;20244;-76
2021/06/09 04:43:41;;;;;;;17.90;16.30;;;;;;;15.16;83.62;96086.75;4995020;28;20223;-76
2021/06/09 04:46:07;;;;;;;18.30;16.63;;;;;;;15.21;83.01;96089.72;5011614;28;20210;-76
2021/06/09 04:48:33;;;;;;;18.00;16.42;;;;;;;15.32;82.83;96093.78;5008794;28;20206;-76
2021/06/09 04:50:58;;;;;;;17.77;16.23;;;;;;;15.38;82.54;96085.28;5012180;28;20266;-76
2021/06/09 04:53:24;;;;;;;17.00;15.35;;;;;;;15.47;82.64;96080.88;4994751;28;20193;-76
2021/06/09 04:55:52;;;;;;;18.13;16.45;;;;;;;15.50;82.10;96083.97;5011142;28;20202;-76
2021/06/09 04:58:19;;;;;;;17.65;15.95;;;;;;;15.57;81.68;96078.91;5009972;28;20215;-75
2021/06/09 05:00:47;;;;;;;16.92;15.43;;;;;;;15.64;81.34;96086.94;5010795;28;20194;-76
2021/06/09 05:03:13;;;;;;;17.05;15.35;;;;;;;15.68;80.94;96083.00;5011043;28;20186;-76
2021/06/09 05:05:38;;;;;;;17.63;15.98;;;;;;;15.75;80.85;96086.59;5011048;28;20191;-76
2021/06/09 05:08:04;;;;;;;16.40;15.00;;;;;;;15.83;80.49;96082.16;5012144;28;20233;-76
2021/06/09 05:10:30;;;;;;;17.83;15.88;;;;;;;15.90;80.03;96086.72;5006694;28;20616;-76
2021/06/09 05:13:08;;;;;;;17.60;16.00;;;;;;;15.97;79.83;96080.63;5010626;28;20185;-75
2021/06/09 05:15:39;;;;;;;15.55;14.15;;;;;;;16.04;78.63;96084.22;5012168;28;20203;-76
2021/06/09 05:18:10;;;;;;;14.98;13.63;;;;;;;16.20;78.19;96085.16;5010758;28;20203;-76
2021/06/09 05:20:38;;;;;;;15.43;14.02;;;;;;;16.38;77.74;96083.13;5009585;28;20187;-75
2021/06/09 05:23:08;;;;;;;15.85;14.35;;;;;;;16.53;77.64;96091.91;4994249;28;20175;-76
2021/06/09 05:25:35;;;;;;;15.25;13.93;;;;;;;16.77;76.75;96092.78;4994364;28;20210;-76
2021/06/09 05:28:01;;;;;;;15.18;13.77;;;;;;;16.88;75.66;96090.63;5010749;28;20168;-76
2021/06/09 05:30:27;;;;;;;14.80;13.45;;;;;;;17.35;74.61;96089.63;5009039;28;20188;-76
2021/06/09 05:32:53;;;;;;;14.70;13.35;;;;;;;18.26;71.88;96085.97;5010885;28;20183;-76
2021/06/09 05:35:19;;;;;;;15.02;13.63;;;;;;;19.26;68.42;96095.88;4994235;28;20203;-76
2021/06/09 05:37:44;;;;;;;13.50;12.30;;;;;;;19.86;65.92;96099.00;5010554;28;20191;-75
2021/06/09 05:40:10;;;;;;;12.77;11.60;;;;;;;20.24;62.56;96095.00;5010579;28;20238;-76
2021/06/09 05:42:36;;;;;;;12.60;11.50;;;;;;;20.57;61.98;96102.28;4992323;28;20195;-77
2021/06/09 05:45:03;;;;;;;13.43;12.23;;;;;;;20.87;60.64;96105.47;5010201;28;20199;-78
2021/06/09 05:47:28;;;;;;;13.18;12.00;;;;;;;21.33;58.83;96108.25;4994201;28;20167;-78
2021/06/09 05:50:10;;;;;;;12.73;11.48;;;;;;;21.80;57.46;96097.69;5005795;28;20191;-76
2021/06/09 05:52:35;;;;;;;12.85;11.48;;;;;;;22.75;53.64;96107.69;5004868;28;20307;-76
2021/06/09 05:55:01;;;;;;;13.30;12.10;;;;;;;22.20;54.63;96104.63;5020309;28;20195;-76
2021/06/09 05:57:26;;;;;;;13.02;11.70;;;;;;;22.24;55.38;96108.47;5027799;28;20268;-76
2021/06/09 05:59:51;;;;;;;13.10;11.80;;;;;;;22.22;56.17;96101.75;5013481;28;20182;-76
2021/06/09 06:02:17;;;;;;;12.52;11.35;;;;;;;21.90;56.03;96095.47;5015095;28;20191;-76
2021/06/09 06:04:43;;;;;;;12.85;11.70;;;;;;;22.21;55.36;96100.13;4993614;28;20286;-76
2021/06/09 06:07:10;;;;;;;12.75;11.50;;;;;;;22.00;55.37;96103.81;5012018;28;20229;-75
2021/06/09 06:09:37;;;;;;;12.23;11.18;;;;;;;22.30;55.74;96099.72;5009498;28;20186;-75
2021/06/09 06:12:03;;;;;;;11.55;10.35;;;;;;;22.45;54.93;96107.41;5010801;28;20248;-76
2021/06/09 06:14:29;;;;;;;11.88;10.73;;;;;;;22.44;54.47;96097.84;5008996;28;20298;-74
2021/06/09 06:16:55;;;;;;;11.00;10.10;;;;;;;22.45;54.72;96106.59;5011528;28;20603;-78
2021/06/09 06:19:21;;;;;;;11.77;10.77;;;;;;;22.13;54.31;96110.94;5010215;28;20218;-74
2021/06/09 06:21:48;;;;;;;12.27;11.18;;;;;;;21.75;56.41;96107.06;5010639;28;20214;-74
2021/06/09 06:24:17;;;;;;;11.70;10.70;;;;;;;21.45;56.59;96109.28;5012773;28;20186;-75
2021/06/09 06:26:46;;;;;;;12.05;10.90;;;;;;;21.15;57.76;96108.78;5014700;28;20195;-76
2021/06/09 06:29:12;;;;;;;12.20;11.00;;;;;;;20.74;57.64;96102.78;5013763;28;20182;-76
2021/06/09 06:31:37;;;;;;;12.45;11.35;;;;;;;20.32;59.33;96101.97;5013792;28;20187;-76
2021/06/09 06:34:03;;;;;;;12.32;11.18;;;;;;;20.39;59.84;96105.41;5012056;28;20176;-76
2021/06/09 06:36:29;;;;;;;12.98;11.85;;;;;;;20.29;59.48;96111.06;5013612;28;20181;-76
2021/06/09 06:38:54;;;;;;;13.82;12.63;;;;;;;20.44;59.44;96113.59;5013484;28;20278;-76
2021/06/09 06:41:21;;;;;;;12.73;11.63;;;;;;;20.43;59.97;96100.59;5013188;28;20602;-76
2021/06/09 06:43:47;;;;;;;13.40;12.20;;;;;;;20.79;59.27;96109.09;5013695;28;20262;-76
2021/06/09 06:46:15;;;;;;;12.88;11.77;;;;;;;20.64;59.54;96106.59;5011788;28;20278;-77
2021/06/09 06:48:41;;;;;;;13.02;11.88;;;;;;;20.99;58.27;96103.88;5013832;28;20602;-76
2021/06/09 06:51:09;;;;;;;14.93;13.70;;;;;;;21.12;58.80;96109.22;5013164;28;20266;-76
2021/06/09 06:53:34;;;;;;;14.48;13.10;;;;;;;20.87;58.66;96105.47;4996902;28;20183;-77
2021/06/09 06:56:03;;;;;;;14.60;13.30;;;;;;;21.07;57.48;96108.16;5011814;28;20199;-76
2021/06/09 06:58:32;;;;;;;14.93;13.48;;;;;;;21.36;57.73;96107.03;5013074;28;20200;-75
2021/06/09 07:00:58;;;;;;;14.25;13.00;;;;;;;21.64;56.58;96099.72;5014174;28;20253;-76
2021/06/09 07:03:24;;;;;;;14.18;12.90;;;;;;;21.61;55.88;96112.56;5013132;28;20171;-75
2021/06/09 07:05:50;;;;;;;15.73;14.35;;;;;;;21.45;56.70;96111.09;5011989;28;20187;-76
2021/06/09 07:08:15;;;;;;;15.52;14.13;;;;;;;22.02;54.14;96104.41;5012430;28;20175;-77
2021/06/09 07:10:41;;;;;;;13.77;12.57;;;;;;;22.40;53.55;96109.84;5012665;28;20283;-75
2021/06/09 07:13:06;;;;;;;14.15;12.73;;;;;;;22.51;54.55;96111.84;5014466;28;20187;-80
2021/06/09 07:15:32;;;;;;;14.50;13.25;;;;;;;23.24;53.19;96114.22;5013182;28;20195;-76
2021/06/09 07:17:58;;;;;;;12.27;11.23;;;;;;;24.41;48.46;96112.72;5011191;28;20583;-76
2021/06/09 07:20:25;;;;;;;13.05;11.77;;;;;;;24.91;47.22;96115.19;5012593;28;20178;-76
2021/06/09 07:22:52;;;;;;;11.57;10.57;;;;;;;24.85;46.21;96126.72;4996241;28;20178;-74
2021/06/09 07:25:19;;;;;;;11.88;10.13;;;;;;;25.60;43.68;96113.03;5012595;28;20225;-74
2021/06/09 07:27:51;;;;;;;9.80;9.00;;;;;;;25.81;42.26;96119.72;5011381;28;20181;-73
2021/06/09 07:30:18;;;;;;;11.18;10.23;;;;;;;26.09;42.41;96113.72;5012167;28;20254;-74
2021/06/09 07:32:45;;;;;;;9.95;8.95;;;;;;;26.02;43.45;96113.03;5011713;28;20195;-74
2021/06/09 07:35:12;;;;;;;10.43;9.50;;;;;;;26.26;44.06;96118.13;5012418;28;20280;-74
2021/06/09 07:37:43;;;;;;;11.10;10.15;;;;;;;26.25;43.31;96119.16;5012769;28;20282;-75
2021/06/09 07:40:12;;;;;;;10.57;9.70;;;;;;;26.81;42.28;96112.38;5010577;28;20183;-75
2021/06/09 07:42:40;;;;;;;9.93;8.93;;;;;;;26.49;42.91;96116.50;5011788;28;20190;-76
2021/06/09 07:45:10;;;;;;;11.02;9.88;;;;;;;25.31;44.26;96120.00;5011796;28;20222;-75
2021/06/09 07:47:40;;;;;;;12.80;11.60;;;;;;;24.06;48.16;96116.91;5011194;28;20564;-74
2021/06/09 07:50:07;;;;;;;13.40;12.27;;;;;;;23.97;48.98;96122.50;5012127;28;20305;-74
2021/06/09 07:52:32;;;;;;;12.02;11.02;;;;;;;24.15;48.96;96124.38;5011972;28;20178;-74
2021/06/09 07:54:58;;;;;;;13.60;12.07;;;;;;;24.36;47.11;96125.81;5013516;28;20199;-73
2021/06/09 07:57:25;;;;;;;11.65;10.65;;;;;;;24.05;46.68;96120.59;5011221;28;20414;-74
2021/06/09 07:59:51;;;;;;;12.23;10.90;;;;;;;24.36;48.44;96131.13;5011984;28;20642;-76
2021/06/09 08:02:18;;;;;;;11.13;10.23;;;;;;;24.41;45.33;96123.31;5011783;28;20254;-74
2021/06/09 08:04:44;;;;;;;10.70;9.73;;;;;;;24.94;46.19;96132.53;5011397;28;20203;-74
2021/06/09 08:07:10;;;;;;;12.20;11.00;;;;;;;24.54;46.70;96133.78;5011682;28;20555;-74
2021/06/09 08:09:36;;;;;;;10.68;9.75;;;;;;;25.23;45.20;96131.78;5010640;28;20187;-75
2021/06/09 08:12:05;;;;;;;10.57;9.68;;;;;;;24.91;46.54;96131.13;5011693;28;20179;-75
2021/06/09 08:14:31;;;;;;;12.18;10.98;;;;;;;25.13;47.33;96129.66;5011703;28;20190;-74
2021/06/09 08:16:56;;;;;;;12.85;11.85;;;;;;;25.42;47.90;96138.66;5011793;28;20186;-74
2021/06/09 08:19:21;;;;;;;12.05;11.05;;;;;;;25.38;47.76;96134.03;5011128;28;20214;-73
2021/06/09 08:21:47;;;;;;;13.15;11.93;;;;;;;25.30;47.04;96126.38;4994938;28;20297;-76
2021/06/09 08:24:12;;;;;;;11.63;10.52;;;;;;;25.02;47.91;96137.56;5011571;28;20634;-74
2021/06/09 08:26:38;;;;;;;12.20;11.07;;;;;;;25.19;47.38;96129.81;5011638;28;20206;-74
2021/06/09 08:29:05;;;;;;;13.02;11.88;;;;;;;25.12;48.09;96132.53;5011100;28;20182;-74
2021/06/09 08:31:32;;;;;;;13.57;12.20;;;;;;;23.76;50.47;96132.66;4993954;28;20198;-75
2021/06/09 08:33:59;;;;;;;12.50;11.38;;;;;;;23.61;50.52;96133.78;5010349;28;20233;-75
2021/06/09 08:36:25;;;;;;;13.80;12.65;;;;;;;23.61;52.16;96132.97;5010520;28;20590;-75
2021/06/09 08:38:54;;;;;;;13.10;12.00;;;;;;;23.25;51.96;96134.41;5011174;28;20325;-74
2021/06/09 08:41:29;;;;;;;12.75;11.70;;;;;;;23.19;50.97;96132.59;5009999;28;20183;-76
2021/06/09 08:43:56;;;;;;;15.05;13.65;;;;;;;21.92;54.09;96133.09;5006696;28;20252;-75
2021/06/09 08:46:22;;;;;;;14.32;13.13;;;;;;;21.87;55.31;96138.19;5010780;28;20175;-76
2021/06/09 08:48:47;;;;;;;15.68;14.27;;;;;;;22.11;54.71;96137.59;5011161;28;20635;-75
2021/06/09 08:51:17;;;;;;;16.35;14.75;;;;;;;21.45;57.64;96134.88;5009990;28;20537;-75
2021/06/09 08:53:45;;;;;;;15.90;14.38;;;;;;;21.28;58.37;96138.91;5010826;28;20230;-76
2021/06/09 08:56:12;;;;;;;16.45;14.77;;;;;;;20.78;59.87;96136.50;5011138;28;20598;-75
2021/06/09 08:58:37;;;;;;;15.10;13.63;;;;;;;21.73;58.68;96140.00;5010803;28;20287;-75
2021/06/09 09:01:06;;;;;;;16.20;14.55;;;;;;;21.40;58.04;96145.25;5010625;28;20559;-73
2021/06/09 09:03:32;;;;;;;15.70;14.40;;;;;;;20.96;58.63;96148.34;5010176;28;20678;-74
2021/06/09 09:05:57;;;;;;;16.88;15.23;;;;;;;20.75;58.22;96136.88;4994227;28;20207;-75
2021/06/09 09:08:22;;;;;;;14.68;13.27;;;;;;;21.23;57.45;96142.13;5010934;28;20171;-76
2021/06/09 09:10:48;;;;;;;14.40;13.10;;;;;;;21.83;57.59;96142.25;5010620;28;20614;-75
2021/06/09 09:13:13;;;;;;;15.98;14.30;;;;;;;22.42;54.24;96139.56;5009827;28;20281;-75
2021/06/09 09:15:38;;;;;;;16.15;14.73;;;;;;;22.33;54.61;96135.50;5010282;28;20218;-76
2021/06/09 09:18:05;;;;;;;15.43;14.02;;;;;;;22.60;54.74;96130.97;5010832;28;20206;-76
2021/06/09 09:20:33;;;;;;;16.65;14.95;;;;;;;22.06;57.36;96132.88;4994077;28;20176;-74
2021/06/09 09:23:00;;;;;;;15.38;13.85;;;;;;;22.24;56.80;96137.56;5009711;28;20249;-75
2021/06/09 09:25:31;;;;;;;15.00;13.60;;;;;;;22.68;54.51;96133.38;5010470;28;20202;-75
2021/06/09 09:28:02;;;;;;;13.40;12.20;;;;;;;23.07;53.14;96140.41;5010368;28;20202;-75
2021/06/09 09:30:29;;;;;;;13.88;12.63;;;;;;;22.82;53.51;96150.84;4993832;28;20206;-74
2021/06/09 09:33:03;;;;;;;14.63;13.38;;;;;;;22.67;52.93;96145.00;5010459;28;20175;-75
2021/06/09 09:35:40;;;;;;;13.73;12.38;;;;;;;22.55;51.98;96147.47;5022968;28;20712;-76
2021/06/09 09:38:18;;;;;;;14.02;12.82;;;;;;;22.92;54.12;96149.63;5010268;28;20214;-75
2021/06/09 09:41:05;;;;;;;16.00;14.40;;;;;;;22.16;55.85;96153.63;5010322;28;20214;-75
2021/06/09 09:43:50;;;;;;;15.02;13.73;;;;;;;22.44;55.59;96144.63;5011533;28;20250;-75
2021/06/09 09:46:18;;;;;;;12.75;11.27;;;;;;;23.77;51.79;96137.75;5009875;28;20574;-74
2021/06/09 09:49:06;;;;;;;13.48;12.18;;;;;;;23.69;50.69;96154.75;4993875;28;20199;-75
2021/06/09 09:51:34;;;;;;;15.77;14.20;;;;;;;22.92;52.90;96150.44;5011423;28;20171;-76
2021/06/09 09:54:03;;;;;;;13.90;12.60;;;;;;;22.72;53.18;96150.50;4994036;28;20171;-74
2021/06/09 09:56:31;;;;;;;12.80;11.60;;;;;;;23.18;51.08;96145.03;5027684;28;20702;-75
2021/06/09 09:59:02;;;;;;;13.80;12.50;;;;;;;23.72;49.44;96140.22;4997822;28;20578;-76
2021/06/09 10:01:29;;;;;;;12.88;11.77;;;;;;;24.00;49.10;96137.97;5014959;28;20178;-73
2021/06/09 10:03:57;;;;;;;10.65;9.65;;;;;;;23.82;44.14;96142.41;5014350;28;20187;-75
2021/06/09 10:06:25;;;;;;;11.25;10.25;;;;;;;23.96;46.03;96141.28;5012951;28;20183;-75
2021/06/09 10:08:52;;;;;;;13.38;12.13;;;;;;;24.79;48.50;96132.91;5029997;28;21260;-75
2021/06/09 10:11:18;;;;;;;13.73;12.55;;;;;;;24.37;46.98;96132.75;5013314;28;20175;-75
2021/06/09 10:13:44;;;;;;;12.45;11.27;;;;;;;24.06;48.16;96136.28;5029076;28;20232;-75
2021/06/09 10:16:24;;;;;;;13.85;12.65;;;;;;;23.52;49.42;96131.59;5012115;28;20907;-75
2021/06/09 10:19:10;;;;;;;14.20;13.00;;;;;;;22.75;52.39;96131.53;5013667;28;20705;-75
2021/06/09 10:22:09;;;;;;;15.82;14.40;;;;;;;22.44;53.41;96118.19;4997472;28;20214;-74
2021/06/09 10:24:48;;;;;;;13.55;12.45;;;;;;;22.97;52.09;96120.66;5013872;28;20568;-75
2021/06/09 10:27:15;;;;;;;13.13;11.93;;;;;;;23.10;52.61;96121.44;5014175;28;20255;-75
2021/06/09 10:29:41;;;;;;;12.80;11.70;;;;;;;23.64;48.15;96114.78;5013319;28;20643;-74
2021/06/09 10:32:09;;;;;;;12.23;11.13;;;;;;;23.95;47.49;96119.25;5013511;28;20199;-75
2021/06/09 10:34:36;;;;;;;13.30;12.15;;;;;;;24.12;47.66;96124.81;5013455;28;20686;-74
2021/06/09 10:37:04;;;;;;;12.00;11.00;;;;;;;24.02;49.14;96117.31;5013773;28;20269;-75
2021/06/09 10:39:32;;;;;;;13.32;12.07;;;;;;;24.08;48.58;96118.31;5012281;28;20188;-75
2021/06/09 10:42:00;;;;;;;14.48;13.20;;;;;;;23.70;49.33;96126.38;5013426;28;20184;-76
2021/06/09 10:44:27;;;;;;;13.38;12.18;;;;;;;23.60;50.22;96131.34;5013675;28;20191;-76
2021/06/09 10:46:55;;;;;;;13.77;12.65;;;;;;;23.01;51.15;96135.94;5012242;28;20257;-75
2021/06/09 10:49:22;;;;;;;13.85;12.63;;;;;;;23.17;49.72;96124.84;5010318;28;20798;-75
2021/06/09 10:51:50;;;;;;;13.52;12.27;;;;;;;23.40;50.03;96126.94;5011938;28;20216;-75
2021/06/09 10:54:16;;;;;;;12.93;11.82;;;;;;;23.27;51.50;96127.03;5013199;28;20206;-75
2021/06/09 10:56:44;;;;;;;12.98;11.77;;;;;;;23.11;49.13;96123.03;4993319;28;20833;-75
2021/06/09 10:59:11;;;;;;;11.43;10.27;;;;;;;23.78;47.50;96123.47;5011260;28;20207;-75
2021/06/09 11:01:37;;;;;;;10.30;9.45;;;;;;;23.66;44.91;96125.19;5006041;28;20209;-75
2021/06/09 11:04:03;;;;;;;11.60;10.32;;;;;;;23.95;44.59;96121.91;5011269;28;20647;-76
2021/06/09 11:06:43;;;;;;;11.85;10.70;;;;;;;23.76;48.47;96119.38;4996863;28;20186;-76
2021/06/09 11:09:22;;;;;;;11.77;10.68;;;;;;;23.38;49.38;96126.34;5007801;28;20179;-75
2021/06/09 11:12:13;;;;;;;13.15;11.20;;;;;;;22.73;50.03;96119.53;5011254;28;20629;-75
2021/06/09 11:14:50;;;;;;;12.52;11.23;;;;;;;22.75;50.25;96115.66;5012037;28;20234;-76
2021/06/09 11:17:43;;;;;;;12.73;11.50;;;;;;;22.39;52.78;96113.53;5010349;28;20178;-76
2021/06/09 11:20:37;;;;;;;12.85;11.85;;;;;;;22.32;51.14;96118.81;5010932;28;20195;-76
2021/06/09 11:23:09;;;;;;;13.35;12.18;;;;;;;21.88;52.92;96119.47;5010550;28;20202;-76
2021/06/09 11:25:41;;;;;;;12.05;10.95;;;;;;;22.27;51.11;96117.84;5010073;28;20642;-76